createdAt,value
2022-08-20T00:00:02.687Z,18.20
2022-08-20T00:01:02.670Z,18.20
2022-08-20T00:02:02.693Z,18.20
2022-08-20T00:03:02.634Z,18.20
2022-08-20T00:04:02.640Z,18.20
2022-08-20T00:05:03.588Z,18.20
2022-08-20T00:06:02.676Z,18.20
2022-08-20T00:07:02.669Z,18.20
2022-08-20T00:08:02.731Z,18.20
2022-08-20T00:09:02.812Z,18.20
2022-08-20T00:10:02.950Z,18.20
2022-08-20T00:11:03.121Z,18.20
2022-08-20T00:12:03.164Z,18.20
2022-08-20T00:13:03.220Z,18.20
2022-08-20T00:14:03.234Z,18.20
2022-08-20T00:15:03.227Z,18.20
2022-08-20T00:16:03.335Z,18.20
2022-08-20T00:17:03.469Z,18.20
2022-08-20T00:18:03.376Z,18.20
2022-08-20T00:19:03.557Z,18.20
2022-08-20T00:20:03.578Z,18.20
2022-08-20T00:21:02.756Z,18.20
2022-08-20T00:22:02.738Z,18.20
2022-08-20T00:23:04.390Z,18.20
2022-08-20T00:24:02.690Z,18.20
2022-08-20T00:25:02.863Z,18.20
2022-08-20T00:26:02.914Z,18.20
2022-08-20T00:27:02.905Z,18.20
2022-08-20T00:28:02.998Z,18.20
2022-08-20T00:29:03.031Z,18.20
2022-08-20T00:30:03.115Z,18.20
2022-08-20T00:31:03.140Z,18.20
2022-08-20T00:32:03.141Z,18.20
2022-08-20T00:33:03.160Z,18.10
2022-08-20T00:34:03.197Z,18.20
2022-08-20T00:35:03.349Z,18.20
2022-08-20T00:36:03.409Z,18.10
2022-08-20T00:37:03.390Z,18.10
2022-08-20T00:38:03.577Z,18.10
2022-08-20T00:39:03.355Z,18.10
2022-08-20T00:40:03.589Z,18.10
2022-08-20T00:41:02.698Z,18.10
2022-08-20T00:42:03.340Z,18.10
2022-08-20T00:43:03.433Z,18.10
2022-08-20T00:44:03.624Z,18.10
2022-08-20T00:45:03.595Z,18.10
2022-08-20T00:46:02.682Z,18.10
2022-08-20T00:47:02.786Z,18.10
2022-08-20T00:48:02.760Z,18.10
2022-08-20T00:49:02.927Z,18.10
2022-08-20T00:50:03.042Z,18.10
2022-08-20T00:51:03.150Z,18.10
2022-08-20T00:52:03.201Z,18.10
2022-08-20T00:53:03.251Z,18.10
2022-08-20T00:54:03.408Z,18.10
2022-08-20T00:55:03.465Z,18.10
2022-08-20T00:56:03.621Z,18.10
2022-08-20T00:57:03.589Z,18.10
2022-08-20T00:58:03.920Z,18.10
2022-08-20T00:59:02.650Z,18.10
2022-08-20T01:00:02.753Z,18.10
2022-08-20T01:01:02.753Z,18.00
2022-08-20T01:02:02.920Z,18.00
2022-08-20T01:03:03.011Z,18.00
2022-08-20T01:04:03.089Z,18.10
2022-08-20T01:05:03.120Z,18.10
2022-08-20T01:06:03.265Z,18.10
2022-08-20T01:07:03.266Z,18.10
2022-08-20T01:08:03.254Z,18.10
2022-08-20T01:09:03.235Z,18.10
2022-08-20T01:10:03.262Z,18.10
2022-08-20T01:11:03.425Z,18.10
2022-08-20T01:12:03.410Z,18.10
2022-08-20T01:13:03.535Z,18.10
2022-08-20T01:14:03.623Z,18.10
2022-08-20T01:15:03.628Z,18.10
2022-08-20T01:16:02.597Z,18.10
2022-08-20T01:17:02.750Z,18.10
2022-08-20T01:18:02.754Z,18.10
2022-08-20T01:19:02.841Z,18.10
2022-08-20T01:20:02.872Z,18.10
2022-08-20T01:21:02.877Z,18.10
2022-08-20T01:22:02.965Z,18.10
2022-08-20T01:23:02.975Z,18.10
2022-08-20T01:24:03.104Z,18.10
2022-08-20T01:25:03.162Z,18.10
2022-08-20T01:26:03.117Z,18.10
2022-08-20T01:27:03.312Z,18.10
2022-08-20T01:28:03.299Z,18.10
2022-08-20T01:29:03.332Z,18.10
2022-08-20T01:30:06.162Z,18.10
2022-08-20T01:31:03.602Z,18.00
2022-08-20T01:32:02.642Z,18.00
2022-08-20T01:33:02.732Z,18.00
2022-08-20T01:34:02.737Z,18.00
2022-08-20T01:35:03.081Z,18.00
2022-08-20T01:36:02.997Z,18.00
2022-08-20T01:37:03.055Z,18.00
2022-08-20T01:38:03.082Z,18.00
2022-08-20T01:39:03.183Z,18.00
2022-08-20T01:40:03.268Z,18.00
2022-08-20T01:41:03.309Z,18.00
2022-08-20T01:42:03.305Z,18.00
2022-08-20T01:43:03.452Z,18.00
2022-08-20T01:44:03.431Z,18.00
2022-08-20T01:45:03.481Z,18.00
2022-08-20T01:46:04.095Z,18.00
2022-08-20T01:47:02.622Z,18.00
2022-08-20T01:48:03.398Z,17.90
2022-08-20T01:49:03.564Z,18.00
2022-08-20T01:50:03.573Z,17.90
2022-08-20T01:51:02.633Z,17.90
2022-08-20T01:52:02.802Z,18.00
2022-08-20T01:53:02.875Z,17.90
2022-08-20T01:54:02.855Z,17.90
2022-08-20T01:55:02.940Z,17.90
2022-08-20T01:56:02.977Z,17.90
2022-08-20T01:57:02.925Z,17.90
2022-08-20T01:58:03.033Z,17.90
2022-08-20T01:59:03.023Z,17.90
2022-08-20T02:00:03.131Z,17.90
2022-08-20T02:01:03.196Z,17.90
2022-08-20T02:02:03.292Z,17.90
2022-08-20T02:03:03.411Z,17.90
2022-08-20T02:04:03.406Z,17.90
2022-08-20T02:05:03.544Z,17.90
2022-08-20T02:06:03.502Z,17.90
2022-08-20T02:07:03.506Z,17.90
2022-08-20T02:08:03.544Z,17.90
2022-08-20T02:09:02.631Z,17.90
2022-08-20T02:10:02.800Z,17.90
2022-08-20T02:11:02.766Z,17.90
2022-08-20T02:12:02.880Z,17.90
2022-08-20T02:13:03.062Z,17.90
2022-08-20T02:14:03.049Z,17.80
2022-08-20T02:15:03.180Z,17.80
2022-08-20T02:16:03.161Z,17.80
2022-08-20T02:17:03.364Z,17.80
2022-08-20T02:18:03.356Z,17.80
2022-08-20T02:19:03.393Z,17.80
2022-08-20T02:20:03.474Z,17.80
2022-08-20T02:21:03.549Z,17.80
2022-08-20T02:22:03.497Z,17.80
2022-08-20T02:23:03.522Z,17.80
2022-08-20T02:24:03.558Z,17.80
2022-08-20T02:25:03.496Z,17.80
2022-08-20T02:26:02.621Z,17.80
2022-08-20T02:27:02.751Z,17.80
2022-08-20T02:28:02.796Z,17.80
2022-08-20T02:29:02.833Z,17.80
2022-08-20T02:30:02.836Z,17.80
2022-08-20T02:31:02.776Z,17.80
2022-08-20T02:32:23.767Z,17.80
2022-08-20T02:33:03.301Z,17.90
2022-08-20T02:34:14.674Z,17.90
2022-08-20T02:35:02.961Z,17.80
2022-08-20T02:36:02.995Z,17.80
2022-08-20T02:37:03.059Z,17.80
2022-08-20T02:38:03.021Z,17.80
2022-08-20T02:39:02.991Z,17.80
2022-08-20T02:40:03.041Z,17.80
2022-08-20T02:41:02.985Z,17.80
2022-08-20T02:42:03.039Z,17.80
2022-08-20T02:43:03.099Z,17.80
2022-08-20T02:44:03.077Z,17.80
2022-08-20T02:45:03.113Z,17.80
2022-08-20T02:46:03.125Z,17.80
2022-08-20T02:47:03.318Z,17.80
2022-08-20T02:48:03.240Z,17.80
2022-08-20T02:49:03.298Z,17.80
2022-08-20T02:50:03.261Z,17.80
2022-08-20T02:51:03.292Z,17.80
2022-08-20T02:52:03.339Z,17.80
2022-08-20T02:53:03.474Z,17.80
2022-08-20T02:54:03.405Z,17.80
2022-08-20T02:55:03.539Z,17.80
2022-08-20T02:56:03.490Z,17.80
2022-08-20T02:57:03.523Z,17.80
2022-08-20T02:58:02.628Z,17.80
2022-08-20T02:59:02.700Z,17.80
2022-08-20T03:00:02.724Z,17.80
2022-08-20T03:01:02.712Z,17.80
2022-08-20T03:02:02.658Z,17.80
2022-08-20T03:03:02.701Z,17.80
2022-08-20T03:04:02.656Z,17.80
2022-08-20T03:05:02.748Z,17.90
2022-08-20T03:06:02.829Z,17.90
2022-08-20T03:07:02.897Z,17.80
2022-08-20T03:08:03.048Z,17.80
2022-08-20T03:09:03.007Z,17.90
2022-08-20T03:10:03.060Z,17.90
2022-08-20T03:11:03.061Z,17.90
2022-08-20T03:12:03.095Z,17.80
2022-08-20T03:13:03.055Z,17.90
2022-08-20T03:14:03.062Z,17.90
2022-08-20T03:15:03.090Z,17.90
2022-08-20T03:16:03.092Z,17.90
2022-08-20T03:17:03.098Z,17.80
2022-08-20T03:18:03.085Z,17.80
2022-08-20T03:19:03.099Z,17.80
2022-08-20T03:20:03.102Z,17.80
2022-08-20T03:21:03.256Z,17.80
2022-08-20T03:22:03.139Z,17.80
2022-08-20T03:23:03.146Z,17.80
2022-08-20T03:24:03.213Z,17.80
2022-08-20T03:25:03.303Z,17.80
2022-08-20T03:26:03.257Z,17.80
2022-08-20T03:27:03.348Z,17.80
2022-08-20T03:28:03.286Z,17.80
2022-08-20T03:29:03.373Z,17.80
2022-08-20T03:30:03.415Z,17.80
2022-08-20T03:31:03.381Z,17.80
2022-08-20T03:32:07.254Z,17.80
2022-08-20T03:33:03.512Z,17.80
2022-08-20T03:34:03.494Z,17.80
2022-08-20T03:35:02.679Z,17.80
2022-08-20T03:36:02.631Z,17.80
2022-08-20T03:37:02.720Z,17.80
2022-08-20T03:38:02.707Z,17.80
2022-08-20T03:39:02.711Z,17.80
2022-08-20T03:40:02.751Z,17.80
2022-08-20T03:41:02.756Z,17.80
2022-08-20T03:42:02.820Z,17.80
2022-08-20T03:43:02.706Z,17.80
2022-08-20T03:44:02.811Z,17.80
2022-08-20T03:45:02.737Z,17.80
2022-08-20T03:46:02.810Z,17.80
2022-08-20T03:47:02.803Z,17.80
2022-08-20T03:48:02.831Z,17.80
2022-08-20T03:49:02.819Z,17.80
2022-08-20T03:50:02.803Z,17.80
2022-08-20T03:51:02.916Z,17.80
2022-08-20T03:52:02.865Z,17.80
2022-08-20T03:53:03.057Z,17.80
2022-08-20T03:54:02.977Z,17.80
2022-08-20T03:55:03.080Z,17.80
2022-08-20T03:56:03.119Z,17.80
2022-08-20T03:57:03.691Z,17.80
2022-08-20T03:58:03.315Z,17.80
2022-08-20T03:59:03.376Z,17.80
2022-08-20T04:00:03.355Z,17.80
2022-08-20T04:01:03.346Z,17.80
2022-08-20T04:02:03.356Z,17.80
2022-08-20T04:03:03.470Z,17.80
2022-08-20T04:04:03.490Z,17.80
2022-08-20T04:05:03.486Z,17.80
2022-08-20T04:06:03.445Z,17.80
2022-08-20T04:07:03.542Z,17.80
2022-08-20T04:08:03.707Z,17.80
2022-08-20T04:09:02.657Z,17.80
2022-08-20T04:10:02.664Z,17.80
2022-08-20T04:11:02.725Z,17.80
2022-08-20T04:12:02.680Z,17.80
2022-08-20T04:13:02.762Z,17.80
2022-08-20T04:14:02.872Z,17.80
2022-08-20T04:15:02.849Z,17.80
2022-08-20T04:16:02.834Z,17.80
2022-08-20T04:17:02.903Z,17.80
2022-08-20T04:18:02.983Z,17.80
2022-08-20T04:19:02.993Z,17.80
2022-08-20T04:20:03.035Z,17.80
2022-08-20T04:21:03.002Z,17.80
2022-08-20T04:22:03.114Z,17.80
2022-08-20T04:23:03.212Z,17.80
2022-08-20T04:24:03.319Z,17.80
2022-08-20T04:25:03.625Z,17.80
2022-08-20T04:26:02.771Z,17.80
2022-08-20T04:27:02.965Z,17.80
2022-08-20T04:28:02.824Z,17.80
2022-08-20T04:29:02.910Z,17.80
2022-08-20T04:30:02.849Z,17.80
2022-08-20T04:31:02.862Z,17.80
2022-08-20T04:32:05.611Z,17.80
2022-08-20T04:33:02.935Z,17.80
2022-08-20T04:34:02.882Z,17.80
2022-08-20T04:35:02.922Z,17.80
2022-08-20T04:36:03.032Z,17.80
2022-08-20T04:37:03.003Z,17.80
2022-08-20T04:38:03.023Z,17.80
2022-08-20T04:39:03.136Z,17.80
2022-08-20T04:40:03.041Z,17.80
2022-08-20T04:41:03.077Z,17.80
2022-08-20T04:42:02.985Z,17.80
2022-08-20T04:43:03.183Z,17.80
2022-08-20T04:44:03.138Z,17.80
2022-08-20T04:45:03.271Z,17.80
2022-08-20T04:46:03.263Z,17.80
2022-08-20T04:47:03.309Z,17.80
2022-08-20T04:48:03.289Z,17.80
2022-08-20T04:49:03.329Z,17.80
2022-08-20T04:50:03.443Z,17.80
2022-08-20T04:51:03.957Z,17.80
2022-08-20T04:52:03.346Z,17.80
2022-08-20T04:53:03.407Z,17.80
2022-08-20T04:54:03.538Z,17.80
2022-08-20T04:55:03.537Z,17.80
2022-08-20T04:56:03.558Z,17.80
2022-08-20T04:57:02.691Z,17.90
2022-08-20T04:58:02.727Z,17.90
2022-08-20T04:59:02.626Z,17.80
2022-08-20T05:00:02.740Z,17.90
2022-08-20T05:01:03.172Z,17.90
2022-08-20T05:02:03.179Z,17.90
2022-08-20T05:03:03.169Z,17.90
2022-08-20T05:04:03.287Z,17.90
2022-08-20T05:05:03.322Z,17.90
2022-08-20T05:06:03.252Z,17.90
2022-08-20T05:07:03.337Z,17.90
2022-08-20T05:08:03.424Z,17.90
2022-08-20T05:09:03.329Z,17.90
2022-08-20T05:10:03.364Z,17.90
2022-08-20T05:11:15.552Z,17.90
2022-08-20T05:12:03.266Z,17.90
2022-08-20T05:13:03.260Z,17.90
2022-08-20T05:14:03.447Z,17.90
2022-08-20T05:15:03.435Z,17.90
2022-08-20T05:16:03.414Z,17.90
2022-08-20T05:17:03.419Z,17.90
2022-08-20T05:18:03.334Z,17.90
2022-08-20T05:19:03.398Z,17.90
2022-08-20T05:20:03.538Z,17.90
2022-08-20T05:21:03.547Z,18.00
2022-08-20T05:22:03.577Z,18.00
2022-08-20T05:23:03.555Z,18.00
2022-08-20T05:24:03.517Z,18.00
2022-08-20T05:25:02.613Z,18.00
2022-08-20T05:26:02.767Z,18.00
2022-08-20T05:27:02.714Z,18.00
2022-08-20T05:28:02.751Z,18.00
2022-08-20T05:29:02.766Z,18.00
2022-08-20T05:30:03.276Z,18.00
2022-08-20T05:31:03.331Z,18.00
2022-08-20T05:32:03.428Z,18.00
2022-08-20T05:33:03.515Z,18.00
2022-08-20T05:34:03.509Z,18.00
2022-08-20T05:35:02.661Z,18.00
2022-08-20T05:36:02.700Z,18.00
2022-08-20T05:37:02.798Z,18.00
2022-08-20T05:38:02.815Z,18.00
2022-08-20T05:39:02.772Z,18.00
2022-08-20T05:40:02.818Z,18.00
2022-08-20T05:41:03.261Z,18.00
2022-08-20T05:42:03.081Z,18.10
2022-08-20T05:43:03.129Z,18.10
2022-08-20T05:44:03.116Z,18.00
2022-08-20T05:45:03.042Z,18.10
2022-08-20T05:46:03.140Z,18.10
2022-08-20T05:47:04.136Z,18.10
2022-08-20T05:48:03.463Z,18.10
2022-08-20T05:49:02.999Z,18.10
2022-08-20T05:50:03.046Z,18.10
2022-08-20T05:51:03.091Z,18.10
2022-08-20T05:52:03.147Z,18.10
2022-08-20T05:53:03.171Z,18.10
2022-08-20T05:54:03.218Z,18.10
2022-08-20T05:55:03.297Z,18.10
2022-08-20T05:56:03.283Z,18.10
2022-08-20T05:57:03.317Z,18.10
2022-08-20T05:58:03.249Z,18.10
2022-08-20T05:59:03.192Z,18.10
2022-08-20T06:00:03.358Z,18.10
2022-08-20T06:01:03.230Z,18.10
2022-08-20T06:02:03.351Z,18.10
2022-08-20T06:03:03.306Z,18.10
2022-08-20T06:04:03.412Z,18.10
2022-08-20T06:05:03.390Z,18.20
2022-08-20T06:06:03.395Z,18.20
2022-08-20T06:07:03.313Z,18.20
2022-08-20T06:08:07.587Z,18.20
2022-08-20T06:09:03.424Z,18.20
2022-08-20T06:10:03.455Z,18.20
2022-08-20T06:11:03.552Z,18.20
2022-08-20T06:12:03.474Z,18.20
2022-08-20T06:13:03.406Z,18.20
2022-08-20T06:14:03.450Z,18.20
2022-08-20T06:15:03.528Z,18.20
2022-08-20T06:16:02.704Z,18.20
2022-08-20T06:17:02.846Z,18.20
2022-08-20T06:18:05.142Z,18.20
2022-08-20T06:19:03.013Z,18.20
2022-08-20T06:20:02.916Z,18.20
2022-08-20T06:21:03.081Z,18.20
2022-08-20T06:22:03.450Z,18.20
2022-08-20T06:23:02.989Z,18.20
2022-08-20T06:24:03.080Z,18.20
2022-08-20T06:25:03.204Z,18.20
2022-08-20T06:26:03.128Z,18.20
2022-08-20T06:27:03.054Z,18.20
2022-08-20T06:28:02.989Z,18.20
2022-08-20T06:29:03.115Z,18.20
2022-08-20T06:30:03.211Z,18.20
2022-08-20T06:31:03.280Z,18.20
2022-08-20T06:32:03.191Z,18.30
2022-08-20T06:33:03.289Z,18.30
2022-08-20T06:34:03.381Z,18.30
2022-08-20T06:35:03.760Z,18.30
2022-08-20T06:36:03.428Z,18.30
2022-08-20T06:37:03.521Z,18.30
2022-08-20T06:38:03.580Z,18.30
2022-08-20T06:39:02.699Z,18.30
2022-08-20T06:40:02.711Z,18.30
2022-08-20T06:41:02.660Z,18.30
2022-08-20T06:42:02.812Z,18.30
2022-08-20T06:43:03.018Z,18.30
2022-08-20T06:44:02.859Z,18.30
2022-08-20T06:45:03.048Z,18.30
2022-08-20T06:46:02.953Z,18.30
2022-08-20T06:47:03.012Z,18.30
2022-08-20T06:48:03.024Z,18.30
2022-08-20T06:49:03.071Z,18.30
2022-08-20T06:50:03.025Z,18.40
2022-08-20T06:51:02.933Z,18.40
2022-08-20T06:52:03.012Z,18.40
2022-08-20T06:53:02.992Z,18.40
2022-08-20T06:54:03.117Z,18.40
2022-08-20T06:55:03.119Z,18.40
2022-08-20T06:56:03.039Z,18.40
2022-08-20T06:57:03.119Z,18.40
2022-08-20T06:58:03.070Z,18.40
2022-08-20T06:59:03.148Z,18.40
2022-08-20T07:00:03.268Z,18.40
2022-08-20T07:01:05.135Z,18.40
2022-08-20T07:02:03.293Z,18.40
2022-08-20T07:03:03.246Z,18.50
2022-08-20T07:04:03.328Z,18.50
2022-08-20T07:05:03.246Z,18.50
2022-08-20T07:06:03.143Z,18.50
2022-08-20T07:07:03.183Z,18.50
2022-08-20T07:08:03.344Z,18.50
2022-08-20T07:09:03.266Z,18.50
2022-08-20T07:10:03.303Z,18.50
2022-08-20T07:11:03.425Z,18.50
2022-08-20T07:12:03.632Z,18.50
2022-08-20T07:13:03.675Z,18.50
2022-08-20T07:14:02.698Z,18.50
2022-08-20T07:15:02.688Z,18.50
2022-08-20T07:16:03.558Z,18.50
2022-08-20T07:17:03.603Z,18.60
2022-08-20T07:18:02.718Z,18.60
2022-08-20T07:19:02.673Z,18.60
2022-08-20T07:20:02.748Z,18.60
2022-08-20T07:21:02.718Z,18.60
2022-08-20T07:22:02.741Z,18.60
2022-08-20T07:23:02.761Z,18.60
2022-08-20T07:24:02.905Z,18.60
2022-08-20T07:25:02.967Z,18.60
2022-08-20T07:26:03.081Z,18.60
2022-08-20T07:27:03.187Z,18.60
2022-08-20T07:28:03.400Z,18.70
2022-08-20T07:29:03.281Z,18.70
2022-08-20T07:30:03.341Z,18.70
2022-08-20T07:31:12.400Z,18.70
2022-08-20T07:32:03.447Z,18.70
2022-08-20T07:33:03.442Z,18.70
2022-08-20T07:34:03.471Z,18.70
2022-08-20T07:35:03.513Z,18.70
2022-08-20T07:36:03.605Z,18.80
2022-08-20T07:37:02.721Z,18.80
2022-08-20T07:38:02.777Z,18.80
2022-08-20T07:39:05.761Z,18.80
2022-08-20T07:40:02.952Z,18.80
2022-08-20T07:41:02.897Z,18.80
2022-08-20T07:42:03.053Z,18.80
2022-08-20T07:43:03.139Z,18.80
2022-08-20T07:44:03.234Z,18.80
2022-08-20T07:45:03.178Z,18.90
2022-08-20T07:46:03.226Z,18.90
2022-08-20T07:47:03.225Z,18.90
2022-08-20T07:48:03.363Z,18.90
2022-08-20T07:49:03.418Z,18.90
2022-08-20T07:50:03.569Z,18.90
2022-08-20T07:51:02.628Z,18.90
2022-08-20T07:52:02.681Z,18.90
2022-08-20T07:53:02.691Z,19.00
2022-08-20T07:54:02.733Z,19.00
2022-08-20T07:55:02.743Z,19.00
2022-08-20T07:56:02.738Z,19.00
2022-08-20T07:57:02.809Z,19.00
2022-08-20T07:58:02.769Z,19.00
2022-08-20T07:59:02.858Z,19.00
2022-08-20T08:00:02.741Z,19.00
2022-08-20T08:01:02.901Z,19.10
2022-08-20T08:02:02.977Z,19.10
2022-08-20T08:03:02.954Z,19.10
2022-08-20T08:04:02.983Z,19.10
2022-08-20T08:05:03.023Z,19.10
2022-08-20T08:06:02.921Z,19.10
2022-08-20T08:07:03.003Z,19.10
2022-08-20T08:08:06.901Z,19.10
2022-08-20T08:09:03.033Z,19.20
2022-08-20T08:10:03.042Z,19.20
2022-08-20T08:11:03.003Z,19.20
2022-08-20T08:12:03.097Z,19.20
2022-08-20T08:13:03.069Z,19.20
2022-08-20T08:14:03.082Z,19.20
2022-08-20T08:15:03.039Z,19.20
2022-08-20T08:16:03.034Z,19.30
2022-08-20T08:17:03.173Z,19.30
2022-08-20T08:18:03.141Z,19.30
2022-08-20T08:19:03.194Z,19.30
2022-08-20T08:20:03.156Z,19.30
2022-08-20T08:21:03.151Z,19.30
2022-08-20T08:22:03.320Z,19.30
2022-08-20T08:23:03.350Z,19.40
2022-08-20T08:24:03.370Z,19.40
2022-08-20T08:25:03.511Z,19.40
2022-08-20T08:26:03.419Z,19.40
2022-08-20T08:27:03.539Z,19.40
2022-08-20T08:28:02.678Z,19.40
2022-08-20T08:29:02.703Z,19.50
2022-08-20T08:30:02.685Z,19.50
2022-08-20T08:31:02.703Z,19.50
2022-08-20T08:32:02.774Z,19.50
2022-08-20T08:33:02.718Z,19.50
2022-08-20T08:34:02.692Z,19.50
2022-08-20T08:35:03.587Z,19.50
2022-08-20T08:36:03.616Z,19.50
2022-08-20T08:37:05.547Z,19.50
2022-08-20T08:38:03.650Z,19.50
2022-08-20T08:39:02.704Z,19.50
2022-08-20T08:40:02.734Z,19.50
2022-08-20T08:41:02.719Z,19.60
2022-08-20T08:42:02.690Z,19.60
2022-08-20T08:43:02.671Z,19.60
2022-08-20T08:44:02.791Z,19.60
2022-08-20T08:45:02.809Z,19.60
2022-08-20T08:46:02.786Z,19.60
2022-08-20T08:47:02.948Z,19.60
2022-08-20T08:48:02.876Z,19.70
2022-08-20T08:49:02.982Z,19.70
2022-08-20T08:50:03.043Z,19.70
2022-08-20T08:51:02.935Z,19.70
2022-08-20T08:52:02.950Z,19.70
2022-08-20T08:53:03.119Z,19.80
2022-08-20T08:54:06.571Z,19.80
2022-08-20T08:55:03.181Z,19.80
2022-08-20T08:56:03.137Z,19.80
2022-08-20T08:57:03.199Z,19.80
2022-08-20T08:58:04.460Z,19.90
2022-08-20T08:59:03.426Z,19.90
2022-08-20T09:00:05.126Z,19.90
2022-08-20T09:01:05.863Z,19.90
2022-08-20T09:02:02.890Z,19.90
2022-08-20T09:03:03.001Z,20.00
2022-08-20T09:04:03.038Z,20.00
2022-08-20T09:05:03.011Z,20.00
2022-08-20T09:06:03.142Z,20.00
2022-08-20T09:07:03.102Z,20.10
2022-08-20T09:08:03.079Z,20.10
2022-08-20T09:09:03.179Z,20.10
2022-08-20T09:10:03.189Z,20.20
2022-08-20T09:11:03.259Z,20.20
2022-08-20T09:12:03.291Z,20.20
2022-08-20T09:13:03.348Z,20.20
2022-08-20T09:14:03.555Z,20.30
2022-08-20T09:15:02.636Z,20.30
2022-08-20T09:16:02.775Z,20.30
2022-08-20T09:17:02.766Z,20.30
2022-08-20T09:18:02.781Z,20.30
2022-08-20T09:19:02.675Z,20.40
2022-08-20T09:20:02.792Z,20.40
2022-08-20T09:21:02.776Z,20.40
2022-08-20T09:22:02.837Z,20.40
2022-08-20T09:23:02.941Z,20.50
2022-08-20T09:24:02.951Z,20.50
2022-08-20T09:25:02.982Z,20.50
2022-08-20T09:26:03.097Z,20.50
2022-08-20T09:27:03.186Z,20.50
2022-08-20T09:28:03.714Z,20.50
2022-08-20T09:29:03.236Z,20.50
2022-08-20T09:30:03.246Z,20.60
2022-08-20T09:31:03.237Z,20.60
2022-08-20T09:32:03.197Z,20.60
2022-08-20T09:33:03.216Z,20.60
2022-08-20T09:34:03.185Z,20.60
2022-08-20T09:35:06.610Z,20.60
2022-08-20T09:36:03.314Z,20.70
2022-08-20T09:37:03.455Z,20.70
2022-08-20T09:38:03.509Z,20.70
2022-08-20T09:39:03.577Z,20.70
2022-08-20T09:40:03.586Z,20.70
2022-08-20T09:41:03.543Z,20.70
2022-08-20T09:42:03.605Z,20.80
2022-08-20T09:43:03.609Z,20.80
2022-08-20T09:44:02.756Z,20.80
2022-08-20T09:45:02.813Z,20.80
2022-08-20T09:46:02.857Z,20.80
2022-08-20T09:47:02.956Z,20.80
2022-08-20T09:48:02.979Z,20.80
2022-08-20T09:49:02.924Z,20.80
2022-08-20T09:50:02.928Z,20.90
2022-08-20T09:51:02.909Z,20.90
2022-08-20T09:52:02.914Z,20.90
2022-08-20T09:53:03.076Z,20.90
2022-08-20T09:54:03.038Z,20.90
2022-08-20T09:55:03.129Z,20.90
2022-08-20T09:56:03.059Z,20.90
2022-08-20T09:57:03.148Z,20.90
2022-08-20T09:58:03.069Z,21.00
2022-08-20T09:59:03.170Z,21.00
2022-08-20T10:00:03.173Z,21.00
2022-08-20T10:01:03.376Z,21.10
2022-08-20T10:02:03.444Z,21.10
2022-08-20T10:03:03.543Z,21.10
2022-08-20T10:04:03.510Z,21.10
2022-08-20T10:05:03.583Z,21.10
2022-08-20T10:06:03.552Z,21.20
2022-08-20T10:07:02.688Z,21.20
2022-08-20T10:08:02.855Z,21.20
2022-08-20T10:09:02.982Z,21.20
2022-08-20T10:10:02.919Z,21.20
2022-08-20T10:11:03.041Z,21.30
2022-08-20T10:12:03.153Z,21.30
2022-08-20T10:13:03.164Z,21.30
2022-08-20T10:14:03.155Z,21.30
2022-08-20T10:15:03.201Z,21.30
2022-08-20T10:16:03.262Z,21.40
2022-08-20T10:17:03.327Z,21.40
2022-08-20T10:18:03.356Z,21.40
2022-08-20T10:19:03.453Z,21.40
2022-08-20T10:20:03.449Z,21.40
2022-08-20T10:21:03.485Z,21.40
2022-08-20T10:22:03.620Z,21.40
2022-08-20T10:23:03.648Z,21.50
2022-08-20T10:24:03.592Z,21.50
2022-08-20T10:25:03.608Z,21.50
2022-08-20T10:26:03.565Z,21.50
2022-08-20T10:27:02.722Z,21.50
2022-08-20T10:28:02.630Z,21.60
2022-08-20T10:29:02.696Z,21.60
2022-08-20T10:30:02.688Z,21.60
2022-08-20T10:31:02.747Z,21.70
2022-08-20T10:32:02.761Z,21.70
2022-08-20T10:33:02.841Z,21.70
2022-08-20T10:34:02.806Z,21.70
2022-08-20T10:35:02.917Z,21.70
2022-08-20T10:36:02.925Z,21.70
2022-08-20T10:37:03.044Z,21.70
2022-08-20T10:38:03.008Z,21.70
2022-08-20T10:39:02.997Z,21.70
2022-08-20T10:40:02.975Z,21.70
2022-08-20T10:41:03.029Z,21.80
2022-08-20T10:42:03.083Z,21.80
2022-08-20T10:43:03.181Z,21.80
2022-08-20T10:44:03.272Z,21.80
2022-08-20T10:45:03.327Z,21.90
2022-08-20T10:46:03.352Z,21.90
2022-08-20T10:47:03.307Z,21.90
2022-08-20T10:48:03.213Z,21.90
2022-08-20T10:49:03.418Z,22.00
2022-08-20T10:50:03.343Z,22.00
2022-08-20T10:51:03.460Z,22.00
2022-08-20T10:52:03.524Z,22.00
2022-08-20T10:53:03.486Z,22.00
2022-08-20T10:54:05.789Z,22.00
2022-08-20T10:55:03.627Z,22.00
2022-08-20T10:56:02.674Z,22.00
2022-08-20T10:57:02.725Z,22.10
2022-08-20T10:58:02.709Z,22.10
2022-08-20T10:59:02.839Z,22.10
2022-08-20T11:00:02.861Z,22.10
2022-08-20T11:01:02.803Z,22.10
2022-08-20T11:02:02.725Z,22.20
2022-08-20T11:03:02.817Z,22.20
2022-08-20T11:04:02.762Z,22.20
2022-08-20T11:05:02.873Z,22.20
2022-08-20T11:06:02.859Z,22.20
2022-08-20T11:07:02.825Z,22.20
2022-08-20T11:08:02.866Z,22.20
2022-08-20T11:09:02.731Z,22.20
2022-08-20T11:10:02.904Z,22.20
2022-08-20T11:11:02.904Z,22.20
2022-08-20T11:12:02.961Z,22.20
2022-08-20T11:13:03.006Z,22.20
2022-08-20T11:14:03.078Z,22.20
2022-08-20T11:15:03.096Z,22.20
2022-08-20T11:16:03.238Z,22.20
2022-08-20T11:17:03.299Z,22.20
2022-08-20T11:18:03.264Z,22.30
2022-08-20T11:19:03.310Z,22.30
2022-08-20T11:20:03.243Z,22.30
2022-08-20T11:21:03.414Z,22.30
2022-08-20T11:22:03.406Z,22.30
2022-08-20T11:23:03.550Z,22.30
2022-08-20T11:24:03.528Z,22.30
2022-08-20T11:25:03.611Z,22.40
2022-08-20T11:26:03.666Z,22.40
2022-08-20T11:27:03.595Z,22.40
2022-08-20T11:28:02.660Z,22.40
2022-08-20T11:29:02.756Z,22.40
2022-08-20T11:30:02.823Z,22.40
2022-08-20T11:31:02.638Z,22.40
2022-08-20T11:32:02.671Z,22.40
2022-08-20T11:33:02.608Z,22.40
2022-08-20T11:34:02.747Z,22.40
2022-08-20T11:35:14.009Z,22.40
2022-08-20T11:36:02.807Z,22.40
2022-08-20T11:37:02.856Z,22.40
2022-08-20T11:38:02.806Z,22.40
2022-08-20T11:39:02.904Z,22.40
2022-08-20T11:40:02.885Z,22.40
2022-08-20T11:41:02.944Z,22.40
2022-08-20T11:42:02.977Z,22.40
2022-08-20T11:43:15.838Z,22.40
2022-08-20T11:44:17.794Z,22.40
2022-08-20T11:45:03.202Z,22.40
2022-08-20T11:46:03.211Z,22.40
2022-08-20T11:47:03.259Z,22.40
2022-08-20T11:48:03.220Z,22.40
2022-08-20T11:49:03.360Z,22.40
2022-08-20T11:50:03.286Z,22.50
2022-08-20T11:51:03.294Z,22.50
2022-08-20T11:52:03.321Z,22.50
2022-08-20T11:53:03.367Z,22.50
2022-08-20T11:54:03.352Z,22.50
2022-08-20T11:55:03.371Z,22.50
2022-08-20T11:56:03.822Z,22.60
2022-08-20T11:57:03.501Z,22.60
2022-08-20T11:58:03.596Z,22.60
2022-08-20T11:59:02.669Z,22.60
2022-08-20T12:00:02.678Z,22.60
2022-08-20T12:01:02.768Z,22.60
2022-08-20T12:02:03.673Z,22.70
2022-08-20T12:03:03.105Z,22.70
2022-08-20T12:04:03.075Z,22.70
2022-08-20T12:05:03.027Z,22.70
2022-08-20T12:06:03.003Z,22.70
2022-08-20T12:07:03.006Z,22.80
2022-08-20T12:08:03.017Z,22.80
2022-08-20T12:09:02.953Z,22.80
2022-08-20T12:10:03.025Z,22.80
2022-08-20T12:11:03.077Z,22.80
2022-08-20T12:12:03.068Z,22.80
2022-08-20T12:13:04.522Z,22.80
2022-08-20T12:14:03.098Z,22.80
2022-08-20T12:15:03.061Z,22.80
2022-08-20T12:16:03.171Z,22.80
2022-08-20T12:17:03.174Z,22.80
2022-08-20T12:18:03.229Z,22.80
2022-08-20T12:19:03.160Z,22.80
2022-08-20T12:20:03.169Z,22.80
2022-08-20T12:21:03.143Z,22.80
2022-08-20T12:22:23.746Z,22.80
2022-08-20T12:23:03.321Z,22.90
2022-08-20T12:24:03.241Z,22.90
2022-08-20T12:25:03.386Z,22.90
2022-08-20T12:26:03.480Z,22.90
2022-08-20T12:27:03.448Z,23.00
2022-08-20T12:28:03.584Z,23.00
2022-08-20T12:29:03.642Z,23.00
2022-08-20T12:30:02.669Z,23.00
2022-08-20T12:31:02.660Z,23.10
2022-08-20T12:32:02.689Z,23.10
2022-08-20T12:33:02.637Z,23.10
2022-08-20T12:34:02.732Z,23.10
2022-08-20T12:35:02.703Z,23.10
2022-08-20T12:36:02.697Z,23.10
2022-08-20T12:37:02.743Z,23.10
2022-08-20T12:38:02.782Z,23.20
2022-08-20T12:39:02.947Z,23.20
2022-08-20T12:40:02.978Z,23.20
2022-08-20T12:41:02.949Z,23.20
2022-08-20T12:42:02.986Z,23.20
2022-08-20T12:43:02.953Z,23.20
2022-08-20T12:44:02.961Z,23.30
2022-08-20T12:45:02.999Z,23.30
2022-08-20T12:46:02.992Z,23.30
2022-08-20T12:47:03.050Z,23.30
2022-08-20T12:48:03.168Z,23.30
2022-08-20T12:49:03.200Z,23.30
2022-08-20T12:50:03.320Z,23.40
2022-08-20T12:51:03.494Z,23.40
2022-08-20T12:52:03.442Z,23.40